Terminal Aerodrome Forecast
Issued by NWS

Home | Current Version | Previous Version | Text Only | Print | Product List | Glossary On
Versions: 1 2 3 4 5 6 7 8 9 10 11 12 13 14 15 16 17 18 19 20 21 22 23 24
000
FTUS45 KBOU 290542 AAA
TAFAPA
TAF AMD
KAPA 290542Z 2906/3006 12006KT P6SM SCT080 BKN120
     FM290900 01009KT P6SM SCT060 BKN140
     FM291100 VRB05KT P6SM SCT070 BKN120
     FM291700 08008KT P6SM SCT060 BKN100
      TEMPO 2920/2924 VRB15G30KT -TSRA BKN050CB
     FM300000 12009KT P6SM VCSH SCT070 BKN100
     FM300300 24005KT P6SM SCT080 BKN120=

USA.gov is the U.S. government's official web portal to all federal, state and local government web resources and services.